Time,TemperatureF,DewpointF,PressureIn,WindDirection,WindDirectionDegrees,WindSpeedMPH,WindSpeedGustMPH,Humidity,HourlyPrecipIn,Conditions,Clouds,dailyrainin,SoftwareType,DateUTC
2013-08-20 00:07:00,64.2,53.0,29.79,WNW,292,3.7,-999.0,67,-99.99,,,0.00,Acu-Link.com,2013-08-20 07:07:00,
2013-08-20 00:22:00,63.9,53.1,29.79,East,90,6.8,-999.0,68,-99.99,,,0.00,Acu-Link.com,2013-08-20 07:22:00,
2013-08-20 00:37:00,63.9,53.5,29.79,ESE,112,2.2,-999.0,69,-99.99,,,0.00,Acu-Link.com,2013-08-20 07:37:00,
2013-08-20 00:52:00,63.5,52.7,29.79,NNE,22,6.3,-999.0,68,-99.99,,,0.00,Acu-Link.com,2013-08-20 07:52:00,
2013-08-20 01:08:00,63.3,53.0,29.80,NE,45,3.7,-999.0,69,-99.99,,,0.00,Acu-Link.com,2013-08-20 08:08:00,
2013-08-20 01:23:00,63.3,53.3,29.79,SSE,157,0.0,-999.0,70,-99.99,,,0.00,Acu-Link.com,2013-08-20 08:23:00,
2013-08-20 01:38:00,63.1,53.2,29.79,East,90,4.7,-999.0,70,-99.99,,,0.00,Acu-Link.com,2013-08-20 08:38:00,
2013-08-20 01:53:00,62.6,53.1,29.79,South,180,2.7,-999.0,71,-99.99,,,0.00,Acu-Link.com,2013-08-20 08:53:00,
2013-08-20 02:09:00,62.2,52.7,29.79,NNE,22,5.8,-999.0,71,-99.99,,,0.00,Acu-Link.com,2013-08-20 09:09:00,
2013-08-20 02:24:00,61.9,53.1,29.80,NNE,22,5.3,-999.0,73,-99.99,,,0.00,Acu-Link.com,2013-08-20 09:24:00,
2013-08-20 02:39:00,62.1,53.3,29.81,ENE,67,2.2,-999.0,73,-99.99,,,0.00,Acu-Link.com,2013-08-20 09:39:00,
2013-08-20 02:54:00,61.9,53.1,29.81,North,0,3.2,-999.0,73,-99.99,,,0.00,Acu-Link.com,2013-08-20 09:54:00,
2013-08-20 03:09:00,61.9,53.1,29.81,NNE,22,2.7,-999.0,73,-99.99,,,0.00,Acu-Link.com,2013-08-20 10:09:00,
2013-08-20 03:24:00,62.2,53.8,29.81,NNE,22,3.7,-999.0,74,-99.99,,,0.00,Acu-Link.com,2013-08-20 10:24:00,
2013-08-20 03:39:00,61.9,53.5,29.81,NNE,22,2.7,-999.0,74,-99.99,,,0.00,Acu-Link.com,2013-08-20 10:39:00,
2013-08-20 03:55:00,61.9,53.5,29.81,NE,45,6.3,-999.0,74,-99.99,,,0.00,Acu-Link.com,2013-08-20 10:55:00,
2013-08-20 04:10:00,61.9,53.9,29.82,ESE,112,5.3,-999.0,75,-99.99,,,0.00,Acu-Link.com,2013-08-20 11:10:00,
2013-08-20 04:25:00,61.3,53.7,29.83,NE,45,5.8,-999.0,76,-99.99,,,0.00,Acu-Link.com,2013-08-20 11:25:00,
2013-08-20 04:40:00,61.2,53.9,29.82,WNW,292,3.7,-999.0,77,-99.99,,,0.00,Acu-Link.com,2013-08-20 11:40:00,
2013-08-20 04:55:00,61.2,54.3,29.83,NNE,22,3.7,-999.0,78,-99.99,,,0.00,Acu-Link.com,2013-08-20 11:55:00,
2013-08-20 05:10:00,60.8,53.9,29.83,ENE,67,4.2,-999.0,78,-99.99,,,0.00,Acu-Link.com,2013-08-20 12:10:00,
2013-08-20 05:25:00,60.6,54.0,29.83,North,0,3.7,-999.0,79,-99.99,,,0.00,Acu-Link.com,2013-08-20 12:25:00,
2013-08-20 05:40:00,60.4,54.2,29.83,SE,135,2.7,-999.0,80,-99.99,,,0.00,Acu-Link.com,2013-08-20 12:40:00,
2013-08-20 05:55:00,60.3,54.1,29.83,ENE,67,3.7,-999.0,80,-99.99,,,0.00,Acu-Link.com,2013-08-20 12:55:00,
2013-08-20 06:11:00,60.3,54.4,29.83,ESE,112,3.2,-999.0,81,-99.99,,,0.00,Acu-Link.com,2013-08-20 13:11:00,
2013-08-20 06:26:00,60.3,54.4,29.84,North,0,2.7,-999.0,81,-99.99,,,0.00,Acu-Link.com,2013-08-20 13:26:00,
2013-08-20 06:41:00,60.6,54.7,29.84,ENE,67,3.2,-999.0,81,-99.99,,,0.00,Acu-Link.com,2013-08-20 13:41:00,
2013-08-20 06:56:00,60.4,54.2,29.84,ENE,67,1.7,-999.0,80,-99.99,,,0.00,Acu-Link.com,2013-08-20 13:56:00,
2013-08-20 07:11:00,60.6,54.0,29.84,North,0,4.2,-999.0,79,-99.99,,,0.00,Acu-Link.com,2013-08-20 14:11:00,
2013-08-20 07:26:00,61.3,54.0,29.85,ENE,67,3.2,-999.0,77,-99.99,,,0.00,Acu-Link.com,2013-08-20 14:26:00,
2013-08-20 07:41:00,63.0,54.9,29.85,East,90,4.7,-999.0,75,-99.99,,,0.00,Acu-Link.com,2013-08-20 14:41:00,
2013-08-20 07:56:00,64.4,55.2,29.85,NNW,337,4.2,-999.0,72,-99.99,,,0.00,Acu-Link.com,2013-08-20 14:56:00,
2013-08-20 08:11:00,63.0,54.6,29.85,North,0,5.8,-999.0,74,-99.99,,,0.00,Acu-Link.com,2013-08-20 15:11:00,
2013-08-20 08:27:00,66.7,55.4,29.85,East,90,3.2,-999.0,67,-99.99,,,0.00,Acu-Link.com,2013-08-20 15:27:00,
2013-08-20 08:42:00,64.4,54.8,29.85,NNE,22,3.7,-999.0,71,-99.99,,,0.00,Acu-Link.com,2013-08-20 15:42:00,
2013-08-20 08:57:00,65.8,54.9,29.85,NNE,22,2.7,-999.0,68,-99.99,,,0.00,Acu-Link.com,2013-08-20 15:57:00,
2013-08-20 09:12:00,66.0,55.1,29.85,WSW,247,3.2,-999.0,68,-99.99,,,0.00,Acu-Link.com,2013-08-20 16:12:00,
2013-08-20 09:27:00,64.4,55.2,29.85,North,0,2.7,-999.0,72,-99.99,,,0.00,Acu-Link.com,2013-08-20 16:27:00,
2013-08-20 09:42:00,64.9,55.3,29.85,ENE,67,2.2,-999.0,71,-99.99,,,0.00,Acu-Link.com,2013-08-20 16:42:00,
2013-08-20 09:57:00,66.2,55.3,29.86,NNE,22,2.2,-999.0,68,-99.99,,,0.00,Acu-Link.com,2013-08-20 16:57:00,
2013-08-20 10:12:00,65.7,55.2,29.86,West,270,4.2,-999.0,69,-99.99,,,0.00,Acu-Link.com,2013-08-20 17:12:00,
2013-08-20 10:27:00,65.3,55.3,29.85,North,0,5.3,-999.0,70,-99.99,,,0.00,Acu-Link.com,2013-08-20 17:27:00,
2013-08-20 10:43:00,66.0,55.5,29.85,WSW,247,6.8,-999.0,69,-99.99,,,0.00,Acu-Link.com,2013-08-20 17:43:00,
2013-08-20 10:58:00,66.6,56.1,29.85,NW,315,5.8,-999.0,69,-99.99,,,0.00,Acu-Link.com,2013-08-20 17:58:00,
2013-08-20 11:13:00,66.7,56.6,29.85,WSW,247,5.8,-999.0,70,-99.99,,,0.00,Acu-Link.com,2013-08-20 18:13:00,
2013-08-20 11:28:00,68.0,56.6,29.84,WNW,292,6.3,-999.0,67,-99.99,,,0.00,Acu-Link.com,2013-08-20 18:28:00,
2013-08-20 11:43:00,68.2,57.2,29.84,WNW,292,7.3,-999.0,68,-99.99,,,0.00,Acu-Link.com,2013-08-20 18:43:00,
2013-08-20 11:58:00,68.0,56.6,29.84,WNW,292,6.8,-999.0,67,-99.99,,,0.00,Acu-Link.com,2013-08-20 18:58:00,
2013-08-20 12:13:00,68.9,57.5,29.84,SW,225,8.3,-999.0,67,-99.99,,,0.00,Acu-Link.com,2013-08-20 19:13:00,
2013-08-20 12:28:00,69.1,57.3,29.83,NNE,22,4.7,-999.0,66,-99.99,,,0.00,Acu-Link.com,2013-08-20 19:28:00,
2013-08-20 12:43:00,69.1,58.1,29.83,WNW,292,8.9,-999.0,68,-99.99,,,0.00,Acu-Link.com,2013-08-20 19:43:00,
2013-08-20 12:59:00,69.4,57.5,29.83,West,270,8.9,-999.0,66,-99.99,,,0.00,Acu-Link.com,2013-08-20 19:59:00,
2013-08-20 13:14:00,69.8,57.5,29.83,NW,315,6.8,-999.0,65,-99.99,,,0.00,Acu-Link.com,2013-08-20 20:14:00,
2013-08-20 13:29:00,70.2,57.4,29.82,West,270,5.8,-999.0,64,-99.99,,,0.00,Acu-Link.com,2013-08-20 20:29:00,
2013-08-20 13:44:00,70.9,58.1,29.82,NNW,337,9.4,-999.0,64,-99.99,,,0.00,Acu-Link.com,2013-08-20 20:44:00,
2013-08-20 13:59:00,71.4,57.2,29.82,NNE,22,7.8,-999.0,61,-99.99,,,0.00,Acu-Link.com,2013-08-20 20:59:00,
2013-08-20 14:14:00,71.1,57.0,29.81,SW,225,6.3,-999.0,61,-99.99,,,0.00,Acu-Link.com,2013-08-20 21:14:00,
2013-08-20 14:29:00,71.4,57.2,29.81,North,0,8.9,-999.0,61,-99.99,,,0.00,Acu-Link.com,2013-08-20 21:29:00,
2013-08-20 14:44:00,71.1,57.0,29.81,WNW,292,5.8,-999.0,61,-99.99,,,0.00,Acu-Link.com,2013-08-20 21:44:00,
2013-08-20 14:59:00,71.2,56.1,29.81,West,270,8.9,-999.0,59,-99.99,,,0.00,Acu-Link.com,2013-08-20 21:59:00,
2013-08-20 15:15:00,71.6,56.5,29.80,North,0,13.5,-999.0,59,-99.99,,,0.00,Acu-Link.com,2013-08-20 22:15:00,
2013-08-20 15:30:00,72.0,55.9,29.80,NNW,337,7.8,-999.0,57,-99.99,,,0.00,Acu-Link.com,2013-08-20 22:30:00,
2013-08-20 15:45:00,72.0,56.4,29.80,WSW,247,9.9,-999.0,58,-99.99,,,0.00,Acu-Link.com,2013-08-20 22:45:00,
2013-08-20 16:00:00,71.6,55.1,29.81,West,270,10.4,-999.0,56,-99.99,,,0.00,Acu-Link.com,2013-08-20 23:00:00,
2013-08-20 16:15:00,72.0,53.9,29.79,NNW,337,11.9,-999.0,53,-99.99,,,0.00,Acu-Link.com,2013-08-20 23:15:00,
2013-08-20 16:30:00,72.1,54.5,29.79,West,270,9.4,-999.0,54,-99.99,,,0.00,Acu-Link.com,2013-08-20 23:30:00,
2013-08-20 16:45:00,72.5,54.9,29.78,NNW,337,10.9,-999.0,54,-99.99,,,0.00,Acu-Link.com,2013-08-20 23:45:00,
2013-08-20 17:00:00,72.5,54.4,29.79,West,270,8.3,-999.0,53,-99.99,,,0.00,Acu-Link.com,2013-08-21 00:00:00,
2013-08-20 17:15:00,72.3,54.2,29.77,NW,315,7.8,-999.0,53,-99.99,,,0.00,Acu-Link.com,2013-08-21 00:15:00,
2013-08-20 17:31:00,72.5,53.9,29.77,West,270,8.9,-999.0,52,-99.99,,,0.00,Acu-Link.com,2013-08-21 00:31:00,
2013-08-20 17:46:00,72.5,53.9,29.76,West,270,8.3,-999.0,52,-99.99,,,0.00,Acu-Link.com,2013-08-21 00:46:00,
2013-08-20 18:01:00,72.5,54.4,29.77,NW,315,7.8,-999.0,53,-99.99,,,0.00,Acu-Link.com,2013-08-21 01:01:00,
2013-08-20 18:16:00,72.3,54.2,29.76,ENE,67,5.8,-999.0,53,-99.99,,,0.00,Acu-Link.com,2013-08-21 01:16:00,
2013-08-20 18:31:00,72.0,53.9,29.77,NW,315,7.8,-999.0,53,-99.99,,,0.00,Acu-Link.com,2013-08-21 01:31:00,
2013-08-20 18:46:00,72.3,54.2,29.75,North,0,8.9,-999.0,53,-99.99,,,0.00,Acu-Link.com,2013-08-21 01:46:00,
2013-08-20 19:01:00,72.1,54.5,29.75,WNW,292,7.3,-999.0,54,-99.99,,,0.00,Acu-Link.com,2013-08-21 02:01:00,
2013-08-20 19:16:00,71.6,53.0,29.74,WNW,292,6.3,-999.0,52,-99.99,,,0.00,Acu-Link.com,2013-08-21 02:16:00,
2013-08-20 19:31:00,71.8,53.2,29.74,WNW,292,4.7,-999.0,52,-99.99,,,0.00,Acu-Link.com,2013-08-21 02:31:00,
2013-08-20 19:47:00,71.4,54.4,29.75,NNW,337,5.3,-999.0,55,-99.99,,,0.00,Acu-Link.com,2013-08-21 02:47:00,
2013-08-20 20:02:00,69.8,54.3,29.75,NNE,22,6.3,-999.0,58,-99.99,,,0.00,Acu-Link.com,2013-08-21 03:02:00,
2013-08-20 20:17:00,68.5,54.5,29.75,North,0,6.8,-999.0,61,-99.99,,,0.00,Acu-Link.com,2013-08-21 03:17:00,
2013-08-20 20:32:00,68.4,54.4,29.76,WNW,292,8.3,-999.0,61,-99.99,,,0.00,Acu-Link.com,2013-08-21 03:32:00,
2013-08-20 20:47:00,68.0,53.1,29.76,WNW,292,7.8,-999.0,59,-99.99,,,0.00,Acu-Link.com,2013-08-21 03:47:00,
2013-08-20 21:02:00,68.0,53.6,29.77,NNE,22,5.3,-999.0,60,-99.99,,,0.00,Acu-Link.com,2013-08-21 04:02:00,
2013-08-20 21:17:00,67.6,52.8,29.76,WNW,292,3.2,-999.0,59,-99.99,,,0.00,Acu-Link.com,2013-08-21 04:17:00,
2013-08-20 21:32:00,67.1,51.8,29.77,NNE,22,2.7,-999.0,58,-99.99,,,0.00,Acu-Link.com,2013-08-21 04:32:00,
2013-08-20 21:47:00,66.9,51.6,29.76,NE,45,6.3,-999.0,58,-99.99,,,0.00,Acu-Link.com,2013-08-21 04:47:00,
2013-08-20 22:03:00,66.7,51.9,29.76,NE,45,4.2,-999.0,59,-99.99,,,0.00,Acu-Link.com,2013-08-21 05:03:00,
2013-08-20 22:18:00,66.6,52.3,29.76,NNE,22,2.7,-999.0,60,-99.99,,,0.00,Acu-Link.com,2013-08-21 05:18:00,
2013-08-20 22:33:00,66.0,53.0,29.77,NE,45,2.7,-999.0,63,-99.99,,,0.00,Acu-Link.com,2013-08-21 05:33:00,
2013-08-20 22:48:00,65.3,51.5,29.76,NNE,22,6.3,-999.0,61,-99.99,,,0.00,Acu-Link.com,2013-08-21 05:48:00,
2013-08-20 23:03:00,64.8,51.5,29.76,NE,45,2.7,-999.0,62,-99.99,,,0.00,Acu-Link.com,2013-08-21 06:03:00,
2013-08-20 23:18:00,64.4,51.1,29.76,NE,45,2.7,-999.0,62,-99.99,,,0.00,Acu-Link.com,2013-08-21 06:18:00,
2013-08-20 23:33:00,64.0,51.1,29.76,NNE,22,4.7,-999.0,63,-99.99,,,0.00,Acu-Link.com,2013-08-21 06:33:00,
2013-08-20 23:48:00,63.9,51.1,29.77,ESE,112,3.2,-999.0,63,-99.99,,,0.00,Acu-Link.com,2013-08-21 06:48:00,